sensor_id;sensor_type;location;lat;lon;timestamp;P1;durP1;ratioP1;P2;durP2;ratioP2
47021;SDS011;32779;52.264;6.154;2023-04-03T00:01:31;8.63;;;1.20;;
47021;SDS011;32779;52.264;6.154;2023-04-03T00:06:23;5.15;;;1.27;;
47021;SDS011;32779;52.264;6.154;2023-04-03T00:08:50;2.72;;;1.20;;
47021;SDS011;32779;52.264;6.154;2023-04-03T00:11:16;5.43;;;1.50;;
47021;SDS011;32779;52.264;6.154;2023-04-03T00:13:42;4.75;;;1.42;;
47021;SDS011;32779;52.264;6.154;2023-04-03T00:16:09;5.15;;;1.20;;
47021;SDS011;32779;52.264;6.154;2023-04-03T00:18:36;5.72;;;1.55;;
47021;SDS011;32779;52.264;6.154;2023-04-03T00:21:03;3.08;;;1.10;;
47021;SDS011;32779;52.264;6.154;2023-04-03T00:23:29;3.78;;;1.42;;
47021;SDS011;32779;52.264;6.154;2023-04-03T00:25:54;4.22;;;1.40;;
47021;SDS011;32779;52.264;6.154;2023-04-03T00:28:20;3.03;;;1.20;;
47021;SDS011;32779;52.264;6.154;2023-04-03T00:30:46;4.07;;;2.20;;
47021;SDS011;32779;52.264;6.154;2023-04-03T00:33:14;4.30;;;1.10;;
47021;SDS011;32779;52.264;6.154;2023-04-03T00:35:40;4.25;;;1.33;;
47021;SDS011;32779;52.264;6.154;2023-04-03T00:38:06;2.67;;;1.33;;
47021;SDS011;32779;52.264;6.154;2023-04-03T00:40:37;3.80;;;1.20;;
47021;SDS011;32779;52.264;6.154;2023-04-03T00:43:14;3.17;;;1.55;;
47021;SDS011;32779;52.264;6.154;2023-04-03T00:45:41;4.40;;;1.48;;
47021;SDS011;32779;52.264;6.154;2023-04-03T00:48:10;7.07;;;1.70;;
47021;SDS011;32779;52.264;6.154;2023-04-03T00:50:39;4.32;;;1.20;;
47021;SDS011;32779;52.264;6.154;2023-04-03T00:53:08;3.75;;;1.17;;
47021;SDS011;32779;52.264;6.154;2023-04-03T00:55:38;6.53;;;1.58;;
47021;SDS011;32779;52.264;6.154;2023-04-03T01:02:57;3.00;;;1.30;;
47021;SDS011;32779;52.264;6.154;2023-04-03T01:05:22;4.00;;;1.65;;
47021;SDS011;32779;52.264;6.154;2023-04-03T01:07:49;6.72;;;1.60;;
47021;SDS011;32779;52.264;6.154;2023-04-03T01:10:16;6.90;;;1.70;;
47021;SDS011;32779;52.264;6.154;2023-04-03T01:12:45;6.05;;;1.35;;
47021;SDS011;32779;52.264;6.154;2023-04-03T01:15:16;5.93;;;1.90;;
47021;SDS011;32779;52.264;6.154;2023-04-03T01:17:52;3.00;;;1.42;;
47021;SDS011;32779;52.264;6.154;2023-04-03T01:23:12;4.65;;;1.48;;
47021;SDS011;32779;52.264;6.154;2023-04-03T01:25:52;4.13;;;1.45;;
47021;SDS011;32779;52.264;6.154;2023-04-03T01:28:21;5.90;;;1.83;;
47021;SDS011;32779;52.264;6.154;2023-04-03T01:33:51;5.05;;;1.52;;
47021;SDS011;32779;52.264;6.154;2023-04-03T01:36:19;5.47;;;1.75;;
47021;SDS011;32779;52.264;6.154;2023-04-03T01:38:49;7.90;;;2.28;;
47021;SDS011;32779;52.264;6.154;2023-04-03T01:41:15;3.58;;;1.90;;
47021;SDS011;32779;52.264;6.154;2023-04-03T01:43:41;3.65;;;1.40;;
47021;SDS011;32779;52.264;6.154;2023-04-03T01:46:07;8.40;;;1.77;;
47021;SDS011;32779;52.264;6.154;2023-04-03T01:48:33;4.82;;;1.40;;
47021;SDS011;32779;52.264;6.154;2023-04-03T01:50:58;5.68;;;1.80;;
47021;SDS011;32779;52.264;6.154;2023-04-03T01:53:24;6.68;;;1.67;;
47021;SDS011;32779;52.264;6.154;2023-04-03T01:55:50;6.15;;;1.65;;
47021;SDS011;32779;52.264;6.154;2023-04-03T01:58:15;5.38;;;1.80;;
47021;SDS011;32779;52.264;6.154;2023-04-03T02:00:41;8.32;;;1.63;;
47021;SDS011;32779;52.264;6.154;2023-04-03T02:03:07;3.90;;;1.50;;
47021;SDS011;32779;52.264;6.154;2023-04-03T02:05:32;2.95;;;1.58;;
47021;SDS011;32779;52.264;6.154;2023-04-03T02:07:58;5.93;;;2.10;;
47021;SDS011;32779;52.264;6.154;2023-04-03T02:10:24;7.95;;;1.73;;
47021;SDS011;32779;52.264;6.154;2023-04-03T02:12:50;6.32;;;2.10;;
47021;SDS011;32779;52.264;6.154;2023-04-03T02:15:15;5.07;;;1.60;;
47021;SDS011;32779;52.264;6.154;2023-04-03T02:17:41;8.27;;;1.60;;
47021;SDS011;32779;52.264;6.154;2023-04-03T02:20:07;5.70;;;1.60;;
47021;SDS011;32779;52.264;6.154;2023-04-03T02:22:33;4.25;;;1.50;;
47021;SDS011;32779;52.264;6.154;2023-04-03T02:24:59;5.95;;;1.73;;
47021;SDS011;32779;52.264;6.154;2023-04-03T02:27:25;11.68;;;1.90;;
47021;SDS011;32779;52.264;6.154;2023-04-03T02:29:51;4.57;;;1.75;;
47021;SDS011;32779;52.264;6.154;2023-04-03T02:32:17;5.28;;;2.17;;
47021;SDS011;32779;52.264;6.154;2023-04-03T02:34:43;6.03;;;1.63;;
47021;SDS011;32779;52.264;6.154;2023-04-03T02:37:08;5.45;;;1.67;;
47021;SDS011;32779;52.264;6.154;2023-04-03T02:39:34;9.85;;;2.10;;
47021;SDS011;32779;52.264;6.154;2023-04-03T02:42:00;3.80;;;1.75;;
47021;SDS011;32779;52.264;6.154;2023-04-03T02:44:26;7.13;;;2.30;;
47021;SDS011;32779;52.264;6.154;2023-04-03T02:46:51;4.82;;;1.65;;
47021;SDS011;32779;52.264;6.154;2023-04-03T02:49:17;7.60;;;2.00;;
47021;SDS011;32779;52.264;6.154;2023-04-03T02:51:42;7.57;;;2.10;;
47021;SDS011;32779;52.264;6.154;2023-04-03T02:54:08;7.82;;;2.72;;
47021;SDS011;32779;52.264;6.154;2023-04-03T02:56:34;7.25;;;1.77;;
47021;SDS011;32779;52.264;6.154;2023-04-03T02:58:59;5.70;;;2.08;;
47021;SDS011;32779;52.264;6.154;2023-04-03T03:01:25;5.85;;;1.80;;
47021;SDS011;32779;52.264;6.154;2023-04-03T03:03:53;6.80;;;1.83;;
47021;SDS011;32779;52.264;6.154;2023-04-03T03:06:19;5.80;;;1.90;;
47021;SDS011;32779;52.264;6.154;2023-04-03T03:08:45;4.15;;;1.90;;
47021;SDS011;32779;52.264;6.154;2023-04-03T03:11:11;8.07;;;2.08;;
47021;SDS011;32779;52.264;6.154;2023-04-03T03:13:36;7.28;;;1.83;;
47021;SDS011;32779;52.264;6.154;2023-04-03T03:16:02;8.70;;;1.92;;
47021;SDS011;32779;52.264;6.154;2023-04-03T03:18:28;5.78;;;1.60;;
47021;SDS011;32779;52.264;6.154;2023-04-03T03:20:55;6.55;;;1.75;;
47021;SDS011;32779;52.264;6.154;2023-04-03T03:23:23;4.65;;;1.42;;
47021;SDS011;32779;52.264;6.154;2023-04-03T03:25:54;6.68;;;1.58;;
47021;SDS011;32779;52.264;6.154;2023-04-03T03:28:23;4.78;;;1.85;;
47021;SDS011;32779;52.264;6.154;2023-04-03T03:30:49;5.13;;;1.75;;
47021;SDS011;32779;52.264;6.154;2023-04-03T03:33:15;4.65;;;1.77;;
47021;SDS011;32779;52.264;6.154;2023-04-03T03:35:42;7.57;;;1.90;;
47021;SDS011;32779;52.264;6.154;2023-04-03T03:38:08;6.55;;;1.52;;
47021;SDS011;32779;52.264;6.154;2023-04-03T03:40:33;3.90;;;1.50;;
47021;SDS011;32779;52.264;6.154;2023-04-03T03:42:59;5.10;;;1.80;;
47021;SDS011;32779;52.264;6.154;2023-04-03T03:45:25;5.65;;;1.70;;
47021;SDS011;32779;52.264;6.154;2023-04-03T03:47:50;5.30;;;1.90;;
47021;SDS011;32779;52.264;6.154;2023-04-03T03:50:16;5.60;;;2.42;;
47021;SDS011;32779;52.264;6.154;2023-04-03T03:52:41;6.93;;;1.98;;
47021;SDS011;32779;52.264;6.154;2023-04-03T03:55:07;8.38;;;2.05;;
47021;SDS011;32779;52.264;6.154;2023-04-03T03:57:33;5.47;;;1.70;;
47021;SDS011;32779;52.264;6.154;2023-04-03T03:59:58;10.30;;;1.92;;
47021;SDS011;32779;52.264;6.154;2023-04-03T04:02:24;6.25;;;1.73;;
47021;SDS011;32779;52.264;6.154;2023-04-03T04:04:50;6.78;;;1.80;;
47021;SDS011;32779;52.264;6.154;2023-04-03T04:07:16;6.90;;;1.85;;
47021;SDS011;32779;52.264;6.154;2023-04-03T04:09:41;5.72;;;1.80;;
47021;SDS011;32779;52.264;6.154;2023-04-03T04:12:07;6.30;;;1.95;;
47021;SDS011;32779;52.264;6.154;2023-04-03T04:14:32;10.05;;;1.90;;
47021;SDS011;32779;52.264;6.154;2023-04-03T04:16:58;7.40;;;1.80;;
47021;SDS011;32779;52.264;6.154;2023-04-03T04:19:23;9.73;;;1.90;;
47021;SDS011;32779;52.264;6.154;2023-04-03T04:21:49;6.60;;;2.10;;
47021;SDS011;32779;52.264;6.154;2023-04-03T04:24:15;6.05;;;2.00;;
47021;SDS011;32779;52.264;6.154;2023-04-03T04:26:41;6.07;;;1.98;;
47021;SDS011;32779;52.264;6.154;2023-04-03T04:29:08;6.90;;;1.92;;
47021;SDS011;32779;52.264;6.154;2023-04-03T04:31:34;6.20;;;2.47;;
47021;SDS011;32779;52.264;6.154;2023-04-03T04:34:00;4.72;;;1.67;;
47021;SDS011;32779;52.264;6.154;2023-04-03T04:36:25;5.75;;;1.60;;
47021;SDS011;32779;52.264;6.154;2023-04-03T04:38:51;6.07;;;2.15;;
47021;SDS011;32779;52.264;6.154;2023-04-03T04:41:19;4.88;;;3.03;;
47021;SDS011;32779;52.264;6.154;2023-04-03T04:43:47;5.80;;;2.10;;
47021;SDS011;32779;52.264;6.154;2023-04-03T04:46:14;5.40;;;2.00;;
47021;SDS011;32779;52.264;6.154;2023-04-03T04:48:40;6.63;;;1.98;;
47021;SDS011;32779;52.264;6.154;2023-04-03T04:51:06;5.50;;;2.05;;
47021;SDS011;32779;52.264;6.154;2023-04-03T04:53:32;4.43;;;1.95;;
47021;SDS011;32779;52.264;6.154;2023-04-03T04:55:58;9.07;;;2.30;;
47021;SDS011;32779;52.264;6.154;2023-04-03T04:58:23;4.60;;;1.83;;
47021;SDS011;32779;52.264;6.154;2023-04-03T05:00:51;8.32;;;2.20;;
47021;SDS011;32779;52.264;6.154;2023-04-03T05:03:30;8.85;;;2.10;;
47021;SDS011;32779;52.264;6.154;2023-04-03T05:05:56;4.85;;;2.08;;
47021;SDS011;32779;52.264;6.154;2023-04-03T05:08:22;7.07;;;2.20;;
47021;SDS011;32779;52.264;6.154;2023-04-03T05:13:14;9.55;;;2.33;;
47021;SDS011;32779;52.264;6.154;2023-04-03T05:15:39;11.27;;;1.75;;
47021;SDS011;32779;52.264;6.154;2023-04-03T05:18:05;5.95;;;2.08;;
47021;SDS011;32779;52.264;6.154;2023-04-03T05:20:31;4.53;;;1.80;;
47021;SDS011;32779;52.264;6.154;2023-04-03T05:25:23;7.72;;;2.08;;
47021;SDS011;32779;52.264;6.154;2023-04-03T05:27:48;7.35;;;2.33;;
47021;SDS011;32779;52.264;6.154;2023-04-03T05:30:14;5.82;;;2.28;;
47021;SDS011;32779;52.264;6.154;2023-04-03T05:32:40;6.22;;;1.98;;
47021;SDS011;32779;52.264;6.154;2023-04-03T05:35:06;6.63;;;2.08;;
47021;SDS011;32779;52.264;6.154;2023-04-03T05:37:32;5.85;;;2.22;;
47021;SDS011;32779;52.264;6.154;2023-04-03T05:42:24;10.52;;;2.58;;
47021;SDS011;32779;52.264;6.154;2023-04-03T05:44:50;5.32;;;2.35;;
47021;SDS011;32779;52.264;6.154;2023-04-03T05:47:16;10.98;;;2.50;;
47021;SDS011;32779;52.264;6.154;2023-04-03T05:49:42;6.40;;;2.28;;
47021;SDS011;32779;52.264;6.154;2023-04-03T05:52:31;9.55;;;2.33;;
47021;SDS011;32779;52.264;6.154;2023-04-03T05:55:01;7.80;;;2.42;;
47021;SDS011;32779;52.264;6.154;2023-04-03T05:57:27;8.73;;;2.53;;
47021;SDS011;32779;52.264;6.154;2023-04-03T05:59:52;12.13;;;3.17;;
47021;SDS011;32779;52.264;6.154;2023-04-03T06:02:19;6.57;;;2.20;;
47021;SDS011;32779;52.264;6.154;2023-04-03T06:04:48;5.78;;;2.17;;
47021;SDS011;32779;52.264;6.154;2023-04-03T06:07:18;11.35;;;2.55;;
47021;SDS011;32779;52.264;6.154;2023-04-03T06:09:51;10.05;;;2.00;;
47021;SDS011;32779;52.264;6.154;2023-04-03T06:12:17;7.53;;;2.10;;
47021;SDS011;32779;52.264;6.154;2023-04-03T06:14:43;7.10;;;1.83;;
47021;SDS011;32779;52.264;6.154;2023-04-03T06:17:09;4.40;;;1.77;;
47021;SDS011;32779;52.264;6.154;2023-04-03T06:19:37;9.00;;;2.58;;
47021;SDS011;32779;52.264;6.154;2023-04-03T06:22:02;7.07;;;2.05;;
47021;SDS011;32779;52.264;6.154;2023-04-03T06:24:28;6.63;;;2.17;;
47021;SDS011;32779;52.264;6.154;2023-04-03T06:26:55;5.88;;;1.90;;
47021;SDS011;32779;52.264;6.154;2023-04-03T06:29:21;5.80;;;2.40;;
47021;SDS011;32779;52.264;6.154;2023-04-03T06:34:13;6.50;;;2.58;;
47021;SDS011;32779;52.264;6.154;2023-04-03T06:36:39;4.75;;;1.80;;
47021;SDS011;32779;52.264;6.154;2023-04-03T06:39:05;11.43;;;2.75;;
47021;SDS011;32779;52.264;6.154;2023-04-03T06:41:31;8.05;;;2.03;;
47021;SDS011;32779;52.264;6.154;2023-04-03T06:43:57;7.25;;;1.75;;
47021;SDS011;32779;52.264;6.154;2023-04-03T06:46:23;4.95;;;1.67;;
47021;SDS011;32779;52.264;6.154;2023-04-03T06:48:50;6.50;;;1.50;;
47021;SDS011;32779;52.264;6.154;2023-04-03T06:53:42;4.90;;;1.92;;
47021;SDS011;32779;52.264;6.154;2023-04-03T06:56:08;6.93;;;1.50;;
47021;SDS011;32779;52.264;6.154;2023-04-03T06:58:33;8.18;;;1.75;;
47021;SDS011;32779;52.264;6.154;2023-04-03T07:00:59;5.07;;;1.50;;
47021;SDS011;32779;52.264;6.154;2023-04-03T07:03:25;6.28;;;1.58;;
47021;SDS011;32779;52.264;6.154;2023-04-03T07:05:50;6.63;;;1.77;;
47021;SDS011;32779;52.264;6.154;2023-04-03T07:08:16;5.23;;;1.80;;
47021;SDS011;32779;52.264;6.154;2023-04-03T07:10:41;10.93;;;1.80;;
47021;SDS011;32779;52.264;6.154;2023-04-03T07:13:07;6.35;;;1.45;;
47021;SDS011;32779;52.264;6.154;2023-04-03T07:15:32;6.78;;;1.58;;
47021;SDS011;32779;52.264;6.154;2023-04-03T07:17:58;6.40;;;1.33;;
47021;SDS011;32779;52.264;6.154;2023-04-03T07:20:24;5.05;;;1.55;;
47021;SDS011;32779;52.264;6.154;2023-04-03T07:22:50;4.78;;;1.33;;
47021;SDS011;32779;52.264;6.154;2023-04-03T07:25:16;2.40;;;1.20;;
47021;SDS011;32779;52.264;6.154;2023-04-03T07:27:42;4.40;;;1.38;;
47021;SDS011;32779;52.264;6.154;2023-04-03T07:30:08;5.80;;;1.58;;
47021;SDS011;32779;52.264;6.154;2023-04-03T07:32:34;6.47;;;1.50;;
47021;SDS011;32779;52.264;6.154;2023-04-03T07:35:02;3.45;;;1.63;;
47021;SDS011;32779;52.264;6.154;2023-04-03T07:37:28;4.13;;;1.10;;
47021;SDS011;32779;52.264;6.154;2023-04-03T07:39:53;3.63;;;1.67;;
47021;SDS011;32779;52.264;6.154;2023-04-03T07:42:20;5.03;;;1.40;;
47021;SDS011;32779;52.264;6.154;2023-04-03T07:44:46;3.50;;;1.25;;
47021;SDS011;32779;52.264;6.154;2023-04-03T07:47:12;4.32;;;1.15;;
47021;SDS011;32779;52.264;6.154;2023-04-03T07:49:39;5.20;;;1.52;;
47021;SDS011;32779;52.264;6.154;2023-04-03T07:52:05;3.85;;;1.30;;
47021;SDS011;32779;52.264;6.154;2023-04-03T07:54:33;3.00;;;1.00;;
47021;SDS011;32779;52.264;6.154;2023-04-03T07:56:59;4.93;;;1.17;;
47021;SDS011;32779;52.264;6.154;2023-04-03T08:01:50;3.67;;;1.17;;
47021;SDS011;32779;52.264;6.154;2023-04-03T08:04:16;4.95;;;1.40;;
47021;SDS011;32779;52.264;6.154;2023-04-03T08:06:42;4.35;;;2.13;;
47021;SDS011;32779;52.264;6.154;2023-04-03T08:09:07;4.68;;;1.30;;
47021;SDS011;32779;52.264;6.154;2023-04-03T08:11:33;6.82;;;1.30;;
47021;SDS011;32779;52.264;6.154;2023-04-03T08:13:59;6.90;;;1.27;;
47021;SDS011;32779;52.264;6.154;2023-04-03T08:16:25;4.35;;;1.30;;
47021;SDS011;32779;52.264;6.154;2023-04-03T08:18:51;2.97;;;1.00;;
47021;SDS011;32779;52.264;6.154;2023-04-03T08:21:17;2.28;;;1.00;;
47021;SDS011;32779;52.264;6.154;2023-04-03T08:23:43;4.03;;;1.23;;
47021;SDS011;32779;52.264;6.154;2023-04-03T08:26:09;3.03;;;1.00;;
47021;SDS011;32779;52.264;6.154;2023-04-03T08:28:39;3.08;;;1.13;;
47021;SDS011;32779;52.264;6.154;2023-04-03T08:31:06;3.90;;;1.05;;
47021;SDS011;32779;52.264;6.154;2023-04-03T08:33:35;5.20;;;1.40;;
47021;SDS011;32779;52.264;6.154;2023-04-03T08:36:02;2.67;;;0.90;;
47021;SDS011;32779;52.264;6.154;2023-04-03T08:38:29;2.55;;;0.93;;
47021;SDS011;32779;52.264;6.154;2023-04-03T08:41:05;2.58;;;1.00;;
47021;SDS011;32779;52.264;6.154;2023-04-03T08:43:39;5.28;;;1.30;;
47021;SDS011;32779;52.264;6.154;2023-04-03T08:46:22;4.78;;;0.93;;
47021;SDS011;32779;52.264;6.154;2023-04-03T08:48:57;2.25;;;0.90;;
47021;SDS011;32779;52.264;6.154;2023-04-03T08:51:24;5.35;;;1.00;;
47021;SDS011;32779;52.264;6.154;2023-04-03T08:53:57;1.88;;;0.80;;
47021;SDS011;32779;52.264;6.154;2023-04-03T08:56:27;1.85;;;0.85;;
47021;SDS011;32779;52.264;6.154;2023-04-03T08:58:58;2.85;;;1.00;;
47021;SDS011;32779;52.264;6.154;2023-04-03T09:01:36;2.08;;;0.70;;
47021;SDS011;32779;52.264;6.154;2023-04-03T09:04:14;2.40;;;0.60;;
47021;SDS011;32779;52.264;6.154;2023-04-03T09:06:42;3.42;;;0.90;;
47021;SDS011;32779;52.264;6.154;2023-04-03T09:12:18;3.00;;;0.90;;
47021;SDS011;32779;52.264;6.154;2023-04-03T09:23:09;3.03;;;0.90;;
47021;SDS011;32779;52.264;6.154;2023-04-03T09:25:58;2.10;;;0.60;;
47021;SDS011;32779;52.264;6.154;2023-04-03T09:28:30;3.42;;;1.00;;
47021;SDS011;32779;52.264;6.154;2023-04-03T09:31:00;1.92;;;0.63;;
47021;SDS011;32779;52.264;6.154;2023-04-03T09:33:26;2.08;;;0.77;;
47021;SDS011;32779;52.264;6.154;2023-04-03T09:35:53;2.53;;;0.70;;
47021;SDS011;32779;52.264;6.154;2023-04-03T09:38:20;0.63;;;0.50;;
47021;SDS011;32779;52.264;6.154;2023-04-03T09:40:48;1.85;;;0.90;;
47021;SDS011;32779;52.264;6.154;2023-04-03T09:45:51;3.60;;;0.50;;
47021;SDS011;32779;52.264;6.154;2023-04-03T09:48:18;5.22;;;0.75;;
47021;SDS011;32779;52.264;6.154;2023-04-03T09:58:47;4.45;;;1.35;;
47021;SDS011;32779;52.264;6.154;2023-04-03T10:06:45;0.95;;;0.52;;
47021;SDS011;32779;52.264;6.154;2023-04-03T10:09:30;3.90;;;0.70;;
47021;SDS011;32779;52.264;6.154;2023-04-03T10:14:30;3.47;;;0.50;;
47021;SDS011;32779;52.264;6.154;2023-04-03T10:17:06;6.63;;;0.70;;
47021;SDS011;32779;52.264;6.154;2023-04-03T10:25:12;2.17;;;0.50;;
47021;SDS011;32779;52.264;6.154;2023-04-03T10:28:11;1.02;;;0.73;;
47021;SDS011;32779;52.264;6.154;2023-04-03T10:30:53;1.98;;;0.50;;
47021;SDS011;32779;52.264;6.154;2023-04-03T10:36:36;1.60;;;0.40;;
47021;SDS011;32779;52.264;6.154;2023-04-03T10:39:12;1.10;;;0.68;;
47021;SDS011;32779;52.264;6.154;2023-04-03T10:45:01;3.85;;;0.73;;
47021;SDS011;32779;52.264;6.154;2023-04-03T10:56:20;3.08;;;0.68;;
47021;SDS011;32779;52.264;6.154;2023-04-03T10:59:02;1.88;;;0.63;;
47021;SDS011;32779;52.264;6.154;2023-04-03T11:01:53;1.42;;;0.50;;
47021;SDS011;32779;52.264;6.154;2023-04-03T11:04:21;3.90;;;1.00;;
47021;SDS011;32779;52.264;6.154;2023-04-03T11:06:53;4.20;;;1.00;;
47021;SDS011;32779;52.264;6.154;2023-04-03T11:09:27;2.33;;;0.73;;
47021;SDS011;32779;52.264;6.154;2023-04-03T11:11:58;3.30;;;0.80;;
47021;SDS011;32779;52.264;6.154;2023-04-03T11:14:34;1.40;;;0.60;;
47021;SDS011;32779;52.264;6.154;2023-04-03T11:17:13;2.10;;;0.60;;
47021;SDS011;32779;52.264;6.154;2023-04-03T11:19:44;2.05;;;0.75;;
47021;SDS011;32779;52.264;6.154;2023-04-03T11:27:43;2.90;;;0.60;;
47021;SDS011;32779;52.264;6.154;2023-04-03T11:30:25;2.15;;;0.70;;
47021;SDS011;32779;52.264;6.154;2023-04-03T11:35:43;2.60;;;0.80;;
47021;SDS011;32779;52.264;6.154;2023-04-03T11:38:14;2.22;;;0.80;;
47021;SDS011;32779;52.264;6.154;2023-04-03T11:40:46;2.53;;;0.80;;
47021;SDS011;32779;52.264;6.154;2023-04-03T11:50:59;1.73;;;0.80;;
47021;SDS011;32779;52.264;6.154;2023-04-03T11:53:37;2.05;;;0.80;;
47021;SDS011;32779;52.264;6.154;2023-04-03T11:56:26;4.30;;;0.80;;
47021;SDS011;32779;52.264;6.154;2023-04-03T12:01:55;2.67;;;0.80;;
47021;SDS011;32779;52.264;6.154;2023-04-03T12:04:23;2.67;;;0.63;;
47021;SDS011;32779;52.264;6.154;2023-04-03T12:06:52;2.25;;;0.70;;
47021;SDS011;32779;52.264;6.154;2023-04-03T12:14:51;2.10;;;0.70;;
47021;SDS011;32779;52.264;6.154;2023-04-03T12:17:20;3.92;;;0.90;;
47021;SDS011;32779;52.264;6.154;2023-04-03T12:19:51;1.63;;;0.82;;
47021;SDS011;32779;52.264;6.154;2023-04-03T12:22:18;3.97;;;1.00;;
47021;SDS011;32779;52.264;6.154;2023-04-03T12:24:48;3.90;;;0.88;;
47021;SDS011;32779;52.264;6.154;2023-04-03T12:27:38;3.17;;;0.75;;
47021;SDS011;32779;52.264;6.154;2023-04-03T12:30:14;3.10;;;1.00;;
47021;SDS011;32779;52.264;6.154;2023-04-03T12:35:16;2.33;;;1.15;;
47021;SDS011;32779;52.264;6.154;2023-04-03T12:46:09;1.42;;;0.80;;
47021;SDS011;32779;52.264;6.154;2023-04-03T12:48:51;1.83;;;0.80;;
47021;SDS011;32779;52.264;6.154;2023-04-03T12:51:35;2.92;;;1.27;;
47021;SDS011;32779;52.264;6.154;2023-04-03T12:54:12;6.88;;;1.00;;
47021;SDS011;32779;52.264;6.154;2023-04-03T12:56:42;2.47;;;0.90;;
47021;SDS011;32779;52.264;6.154;2023-04-03T12:59:15;3.63;;;0.90;;
47021;SDS011;32779;52.264;6.154;2023-04-03T13:01:42;5.95;;;1.10;;
47021;SDS011;32779;52.264;6.154;2023-04-03T13:04:09;2.53;;;0.80;;
47021;SDS011;32779;52.264;6.154;2023-04-03T13:06:38;2.45;;;1.00;;
47021;SDS011;32779;52.264;6.154;2023-04-03T13:09:21;2.65;;;1.00;;
47021;SDS011;32779;52.264;6.154;2023-04-03T13:11:57;3.85;;;0.93;;
47021;SDS011;32779;52.264;6.154;2023-04-03T13:14:28;4.60;;;0.98;;
47021;SDS011;32779;52.264;6.154;2023-04-03T13:19:26;3.50;;;1.08;;
47021;SDS011;32779;52.264;6.154;2023-04-03T13:21:58;1.77;;;0.88;;
47021;SDS011;32779;52.264;6.154;2023-04-03T13:24:28;4.68;;;1.27;;
47021;SDS011;32779;52.264;6.154;2023-04-03T13:26:55;3.00;;;0.95;;
47021;SDS011;32779;52.264;6.154;2023-04-03T13:29:31;5.88;;;1.25;;
47021;SDS011;32779;52.264;6.154;2023-04-03T13:34:26;4.30;;;1.27;;
47021;SDS011;32779;52.264;6.154;2023-04-03T13:39:26;7.07;;;1.23;;
47021;SDS011;32779;52.264;6.154;2023-04-03T13:41:58;3.80;;;0.88;;
47021;SDS011;32779;52.264;6.154;2023-04-03T13:44:46;2.63;;;1.00;;
47021;SDS011;32779;52.264;6.154;2023-04-03T13:47:19;6.88;;;1.10;;
47021;SDS011;32779;52.264;6.154;2023-04-03T13:52:41;6.05;;;1.17;;
47021;SDS011;32779;52.264;6.154;2023-04-03T13:55:25;3.47;;;1.20;;
47021;SDS011;32779;52.264;6.154;2023-04-03T13:57:58;4.20;;;1.20;;
47021;SDS011;32779;52.264;6.154;2023-04-03T14:03:25;3.47;;;1.10;;
47021;SDS011;32779;52.264;6.154;2023-04-03T14:05:55;2.95;;;1.20;;
47021;SDS011;32779;52.264;6.154;2023-04-03T14:08:20;3.45;;;1.13;;
47021;SDS011;32779;52.264;6.154;2023-04-03T14:10:46;2.30;;;1.10;;
47021;SDS011;32779;52.264;6.154;2023-04-03T14:13:14;4.85;;;1.45;;
47021;SDS011;32779;52.264;6.154;2023-04-03T14:15:42;4.30;;;1.52;;
47021;SDS011;32779;52.264;6.154;2023-04-03T14:18:12;3.70;;;1.35;;
47021;SDS011;32779;52.264;6.154;2023-04-03T14:20:39;3.65;;;1.23;;
47021;SDS011;32779;52.264;6.154;2023-04-03T14:23:05;5.20;;;1.20;;
47021;SDS011;32779;52.264;6.154;2023-04-03T14:27:56;3.28;;;1.13;;
47021;SDS011;32779;52.264;6.154;2023-04-03T14:30:27;3.88;;;1.10;;
47021;SDS011;32779;52.264;6.154;2023-04-03T14:32:54;4.93;;;1.52;;
47021;SDS011;32779;52.264;6.154;2023-04-03T14:35:20;4.10;;;1.10;;
47021;SDS011;32779;52.264;6.154;2023-04-03T14:37:47;4.35;;;1.10;;
47021;SDS011;32779;52.264;6.154;2023-04-03T14:40:15;4.78;;;1.13;;
47021;SDS011;32779;52.264;6.154;2023-04-03T14:42:44;4.38;;;1.02;;
47021;SDS011;32779;52.264;6.154;2023-04-03T14:45:12;4.60;;;1.05;;
47021;SDS011;32779;52.264;6.154;2023-04-03T14:47:44;2.58;;;1.08;;
47021;SDS011;32779;52.264;6.154;2023-04-03T14:50:14;3.25;;;0.80;;
47021;SDS011;32779;52.264;6.154;2023-04-03T14:52:42;2.60;;;1.00;;
47021;SDS011;32779;52.264;6.154;2023-04-03T14:55:08;3.95;;;1.25;;
47021;SDS011;32779;52.264;6.154;2023-04-03T14:57:34;3.20;;;0.93;;
47021;SDS011;32779;52.264;6.154;2023-04-03T15:02:30;4.65;;;1.17;;
47021;SDS011;32779;52.264;6.154;2023-04-03T15:04:57;4.32;;;1.13;;
47021;SDS011;32779;52.264;6.154;2023-04-03T15:07:25;6.03;;;1.20;;
47021;SDS011;32779;52.264;6.154;2023-04-03T15:09:53;2.92;;;1.10;;
47021;SDS011;32779;52.264;6.154;2023-04-03T15:12:21;2.53;;;1.00;;
47021;SDS011;32779;52.264;6.154;2023-04-03T15:14:48;6.22;;;1.00;;
47021;SDS011;32779;52.264;6.154;2023-04-03T15:17:15;3.58;;;1.27;;
47021;SDS011;32779;52.264;6.154;2023-04-03T15:19:46;2.83;;;1.00;;
47021;SDS011;32779;52.264;6.154;2023-04-03T15:22:13;3.50;;;1.35;;
47021;SDS011;32779;52.264;6.154;2023-04-03T15:24:43;2.45;;;1.00;;
47021;SDS011;32779;52.264;6.154;2023-04-03T15:27:09;3.05;;;1.13;;
47021;SDS011;32779;52.264;6.154;2023-04-03T15:29:37;2.30;;;1.23;;
47021;SDS011;32779;52.264;6.154;2023-04-03T15:32:04;3.00;;;1.10;;
47021;SDS011;32779;52.264;6.154;2023-04-03T15:34:30;2.13;;;1.05;;
47021;SDS011;32779;52.264;6.154;2023-04-03T15:36:56;3.45;;;1.17;;
47021;SDS011;32779;52.264;6.154;2023-04-03T15:39:22;4.88;;;0.90;;
47021;SDS011;32779;52.264;6.154;2023-04-03T15:41:50;5.10;;;1.13;;
47021;SDS011;32779;52.264;6.154;2023-04-03T15:44:17;3.22;;;1.10;;
47021;SDS011;32779;52.264;6.154;2023-04-03T15:46:44;4.00;;;1.00;;
47021;SDS011;32779;52.264;6.154;2023-04-03T15:49:10;4.28;;;0.95;;
47021;SDS011;32779;52.264;6.154;2023-04-03T15:51:37;5.40;;;1.08;;
47021;SDS011;32779;52.264;6.154;2023-04-03T15:54:03;3.38;;;1.00;;
47021;SDS011;32779;52.264;6.154;2023-04-03T15:58:54;7.90;;;1.05;;
47021;SDS011;32779;52.264;6.154;2023-04-03T16:01:20;1.92;;;0.77;;
47021;SDS011;32779;52.264;6.154;2023-04-03T16:03:46;3.80;;;0.98;;
47021;SDS011;32779;52.264;6.154;2023-04-03T16:06:13;2.88;;;1.08;;
47021;SDS011;32779;52.264;6.154;2023-04-03T16:08:40;3.08;;;0.98;;
47021;SDS011;32779;52.264;6.154;2023-04-03T16:11:06;4.97;;;1.27;;
47021;SDS011;32779;52.264;6.154;2023-04-03T16:13:32;6.38;;;1.48;;
47021;SDS011;32779;52.264;6.154;2023-04-03T16:15:58;6.05;;;1.35;;
47021;SDS011;32779;52.264;6.154;2023-04-03T16:18:25;7.07;;;1.08;;
47021;SDS011;32779;52.264;6.154;2023-04-03T16:20:50;5.38;;;1.30;;
47021;SDS011;32779;52.264;6.154;2023-04-03T16:23:16;4.88;;;1.50;;
47021;SDS011;32779;52.264;6.154;2023-04-03T16:25:42;3.17;;;1.10;;
47021;SDS011;32779;52.264;6.154;2023-04-03T16:28:11;3.95;;;1.30;;
47021;SDS011;32779;52.264;6.154;2023-04-03T16:30:38;3.78;;;1.13;;
47021;SDS011;32779;52.264;6.154;2023-04-03T16:33:08;6.20;;;1.50;;
47021;SDS011;32779;52.264;6.154;2023-04-03T16:35:35;3.72;;;1.98;;
47021;SDS011;32779;52.264;6.154;2023-04-03T16:38:00;4.45;;;1.05;;
47021;SDS011;32779;52.264;6.154;2023-04-03T16:40:26;4.70;;;1.13;;
47021;SDS011;32779;52.264;6.154;2023-04-03T16:42:51;3.08;;;1.10;;
47021;SDS011;32779;52.264;6.154;2023-04-03T16:45:17;3.10;;;1.25;;
47021;SDS011;32779;52.264;6.154;2023-04-03T16:47:43;3.15;;;1.17;;
47021;SDS011;32779;52.264;6.154;2023-04-03T16:50:08;2.30;;;1.20;;
47021;SDS011;32779;52.264;6.154;2023-04-03T16:52:34;6.47;;;1.52;;
47021;SDS011;32779;52.264;6.154;2023-04-03T16:55:00;4.68;;;1.20;;
47021;SDS011;32779;52.264;6.154;2023-04-03T16:57:25;7.57;;;1.52;;
47021;SDS011;32779;52.264;6.154;2023-04-03T16:59:51;4.60;;;1.83;;
47021;SDS011;32779;52.264;6.154;2023-04-03T17:02:18;6.28;;;1.10;;
47021;SDS011;32779;52.264;6.154;2023-04-03T17:04:45;3.42;;;1.30;;
47021;SDS011;32779;52.264;6.154;2023-04-03T17:07:11;3.10;;;1.20;;
47021;SDS011;32779;52.264;6.154;2023-04-03T17:09:37;6.93;;;1.50;;